sensor_id;sensor_type;location;lat;lon;timestamp;pressure;altitude;pressure_sealevel;temperature;humidity
53619;BME280;39505;53.040;18.488;2022-11-20T00:00:02;100911.69;;;0.01;100.00
53619;BME280;39505;53.040;18.488;2022-11-20T00:00:16;100914.31;;;0.01;100.00
53619;BME280;39505;53.040;18.488;2022-11-20T00:00:50;100916.09;;;0.01;100.00
53619;BME280;39505;53.040;18.488;2022-11-20T00:01:06;100915.25;;;0.00;100.00
53619;BME280;39505;53.040;18.488;2022-11-20T00:01:20;100920.53;;;0.00;100.00
53619;BME280;39505;53.040;18.488;2022-11-20T00:01:33;100907.25;;;0.02;100.00
53619;BME280;39505;53.040;18.488;2022-11-20T00:01:46;100914.31;;;0.01;100.00
53619;BME280;39505;53.040;18.488;2022-11-20T00:01:59;100915.25;;;0.00;100.00
53619;BME280;39505;53.040;18.488;2022-11-20T00:02:12;100916.94;;;0.01;100.00
53619;BME280;39505;53.040;18.488;2022-11-20T00:02:25;100916.09;;;0.01;100.00
53619;BME280;39505;53.040;18.488;2022-11-20T00:02:38;100911.72;;;-0.00;100.00
53619;BME280;39505;53.040;18.488;2022-11-20T00:02:51;100916.09;;;0.01;100.00
53619;BME280;39505;53.040;18.488;2022-11-20T00:03:03;100910.81;;;0.01;100.00
53619;BME280;39505;53.040;18.488;2022-11-20T00:03:16;100914.38;;;-0.00;100.00
53619;BME280;39505;53.040;18.488;2022-11-20T00:03:29;100907.34;;;0.00;100.00
53619;BME280;39505;53.040;18.488;2022-11-20T00:03:42;100909.97;;;0.00;100.00
53619;BME280;39505;53.040;18.488;2022-11-20T00:03:57;100907.34;;;0.00;100.00
53619;BME280;39505;53.040;18.488;2022-11-20T00:04:10;100911.69;;;0.01;100.00
53619;BME280;39505;53.040;18.488;2022-11-20T00:04:23;100908.25;;;-0.01;100.00
53619;BME280;39505;53.040;18.488;2022-11-20T00:04:35;100909.09;;;-0.00;100.00
53619;BME280;39505;53.040;18.488;2022-11-20T00:04:48;100915.25;;;0.00;100.00
53619;BME280;39505;53.040;18.488;2022-11-20T00:05:01;100908.25;;;-0.01;100.00
53619;BME280;39505;53.040;18.488;2022-11-20T00:05:13;100918.78;;;-0.01;100.00
53619;BME280;39505;53.040;18.488;2022-11-20T00:05:26;100918.78;;;-0.01;100.00
53619;BME280;39505;53.040;18.488;2022-11-20T00:05:40;100917.09;;;-0.02;100.00
53619;BME280;39505;53.040;18.488;2022-11-20T00:05:53;100911.81;;;-0.02;100.00
53619;BME280;39505;53.040;18.488;2022-11-20T00:06:07;100911.81;;;-0.02;100.00
53619;BME280;39505;53.040;18.488;2022-11-20T00:06:21;100920.53;;;0.00;100.00
53619;BME280;39505;53.040;18.488;2022-11-20T00:06:34;100917.94;;;-0.01;100.00
53619;BME280;39505;53.040;18.488;2022-11-20T00:06:47;100918.78;;;-0.01;100.00
53619;BME280;39505;53.040;18.488;2022-11-20T00:07:00;100914.38;;;-0.00;100.00
53619;BME280;39505;53.040;18.488;2022-11-20T00:07:13;100914.38;;;-0.00;100.00
53619;BME280;39505;53.040;18.488;2022-11-20T00:07:26;100912.63;;;0.00;100.00
53619;BME280;39505;53.040;18.488;2022-11-20T00:07:38;100914.38;;;-0.00;100.00
53619;BME280;39505;53.040;18.488;2022-11-20T00:07:51;100909.97;;;0.00;100.00
53619;BME280;39505;53.040;18.488;2022-11-20T00:08:04;100917.00;;;-0.00;100.00
53619;BME280;39505;53.040;18.488;2022-11-20T00:08:17;100916.09;;;0.01;100.00
53619;BME280;39505;53.040;18.488;2022-11-20T00:08:30;100919.59;;;0.01;100.00
53619;BME280;39505;53.040;18.488;2022-11-20T00:08:44;100918.69;;;0.02;100.00
53619;BME280;39505;53.040;18.488;2022-11-20T00:08:58;100920.44;;;0.02;100.00
53619;BME280;39505;53.040;18.488;2022-11-20T00:09:11;100916.06;;;0.02;100.00
53619;BME280;39505;53.040;18.488;2022-11-20T00:09:23;100916.09;;;0.01;100.00
53619;BME280;39505;53.040;18.488;2022-11-20T00:09:36;100915.13;;;0.03;100.00
53619;BME280;39505;53.040;18.488;2022-11-20T00:09:50;100923.03;;;0.03;100.00
53619;BME280;39505;53.040;18.488;2022-11-20T00:10:03;100920.38;;;0.03;100.00
53619;BME280;39505;53.040;18.488;2022-11-20T00:10:16;100918.59;;;0.04;100.00
53619;BME280;39505;53.040;18.488;2022-11-20T00:10:28;100920.38;;;0.03;100.00
53619;BME280;39505;53.040;18.488;2022-11-20T00:10:41;100916.06;;;0.02;100.00
53619;BME280;39505;53.040;18.488;2022-11-20T00:10:53;100917.81;;;0.02;100.00
53619;BME280;39505;53.040;18.488;2022-11-20T00:11:07;100913.53;;;-0.01;100.00
53619;BME280;39505;53.040;18.488;2022-11-20T00:11:28;100920.53;;;0.00;100.00
53619;BME280;39505;53.040;18.488;2022-11-20T00:11:42;100923.97;;;0.02;100.00
53619;BME280;39505;53.040;18.488;2022-11-20T00:11:55;100922.22;;;0.01;100.00
53619;BME280;39505;53.040;18.488;2022-11-20T00:12:07;100924.84;;;0.01;100.00
53619;BME280;39505;53.040;18.488;2022-11-20T00:12:20;100917.88;;;0.00;100.00
53619;BME280;39505;53.040;18.488;2022-11-20T00:12:33;100917.81;;;0.02;100.00
53619;BME280;39505;53.040;18.488;2022-11-20T00:12:46;100916.94;;;0.01;100.00
53619;BME280;39505;53.040;18.488;2022-11-20T00:12:58;100921.38;;;0.01;100.00
53619;BME280;39505;53.040;18.488;2022-11-20T00:13:11;100917.00;;;-0.00;100.00
53619;BME280;39505;53.040;18.488;2022-11-20T00:13:23;100917.00;;;-0.00;100.00
53619;BME280;39505;53.040;18.488;2022-11-20T00:13:37;100923.16;;;0.00;100.00
53619;BME280;39505;53.040;18.488;2022-11-20T00:13:53;100918.84;;;-0.02;100.00
53619;BME280;39505;53.040;18.488;2022-11-20T00:14:06;100917.00;;;-0.00;100.00
53619;BME280;39505;53.040;18.488;2022-11-20T00:14:19;100921.41;;;-0.01;100.00
53619;BME280;39505;53.040;18.488;2022-11-20T00:14:32;100916.16;;;-0.01;100.00
53619;BME280;39505;53.040;18.488;2022-11-20T00:14:44;100915.25;;;0.00;100.00
53619;BME280;39505;53.040;18.488;2022-11-20T00:14:58;100920.53;;;0.00;100.00
53619;BME280;39505;53.040;18.488;2022-11-20T00:15:10;100918.75;;;0.01;100.00
53619;BME280;39505;53.040;18.488;2022-11-20T00:15:23;100915.25;;;0.00;100.00
53619;BME280;39505;53.040;18.488;2022-11-20T00:15:36;100921.38;;;0.01;100.00
53619;BME280;39505;53.040;18.488;2022-11-20T00:15:56;100921.31;;;0.02;100.00
53619;BME280;39505;53.040;18.488;2022-11-20T00:16:13;100922.22;;;0.01;100.00
53619;BME280;39505;53.040;18.488;2022-11-20T00:16:29;100924.81;;;0.03;100.00
53619;BME280;39505;53.040;18.488;2022-11-20T00:16:43;100919.53;;;0.03;100.00
53619;BME280;39505;53.040;18.488;2022-11-20T00:16:55;100921.31;;;0.02;100.00
53619;BME280;39505;53.040;18.488;2022-11-20T00:17:08;100916.94;;;0.01;100.00
53619;BME280;39505;53.040;18.488;2022-11-20T00:17:21;100916.06;;;0.02;100.00
53619;BME280;39505;53.040;18.488;2022-11-20T00:17:33;100921.31;;;0.02;100.00
53619;BME280;39505;53.040;18.488;2022-11-20T00:17:46;100916.94;;;0.01;100.00
53619;BME280;39505;53.040;18.488;2022-11-20T00:18:00;100922.22;;;0.01;100.00
53619;BME280;39505;53.040;18.488;2022-11-20T00:18:12;100919.59;;;0.01;100.00
53619;BME280;39505;53.040;18.488;2022-11-20T00:18:25;100914.31;;;0.01;100.00
53619;BME280;39505;53.040;18.488;2022-11-20T00:18:38;100922.22;;;0.01;100.00
53619;BME280;39505;53.040;18.488;2022-11-20T00:18:51;100912.63;;;0.00;100.00
53619;BME280;39505;53.040;18.488;2022-11-20T00:19:04;100917.00;;;-0.00;100.00
53619;BME280;39505;53.040;18.488;2022-11-20T00:19:18;100916.16;;;-0.01;100.00
53619;BME280;39505;53.040;18.488;2022-11-20T00:19:31;100913.53;;;-0.01;100.00
53619;BME280;39505;53.040;18.488;2022-11-20T00:19:44;100913.53;;;-0.01;100.00
53619;BME280;39505;53.040;18.488;2022-11-20T00:19:56;100914.44;;;-0.02;100.00
53619;BME280;39505;53.040;18.488;2022-11-20T00:20:10;100914.44;;;-0.02;100.00
53619;BME280;39505;53.040;18.488;2022-11-20T00:20:23;100917.94;;;-0.01;100.00
53619;BME280;39505;53.040;18.488;2022-11-20T00:20:37;100918.78;;;-0.01;100.00
53619;BME280;39505;53.040;18.488;2022-11-20T00:20:49;100913.56;;;-0.02;100.00
53619;BME280;39505;53.040;18.488;2022-11-20T00:21:03;100912.66;;;-0.01;100.00
53619;BME280;39505;53.040;18.488;2022-11-20T00:21:18;100916.16;;;-0.01;100.00
53619;BME280;39505;53.040;18.488;2022-11-20T00:21:33;100913.53;;;-0.01;100.00
53619;BME280;39505;53.040;18.488;2022-11-20T00:21:46;100917.00;;;-0.00;100.00
53619;BME280;39505;53.040;18.488;2022-11-20T00:21:59;100915.25;;;0.00;100.00
53619;BME280;39505;53.040;18.488;2022-11-20T00:22:12;100914.38;;;-0.00;100.00
53619;BME280;39505;53.040;18.488;2022-11-20T00:22:24;100910.88;;;-0.01;100.00
53619;BME280;39505;53.040;18.488;2022-11-20T00:22:37;100916.16;;;-0.01;100.00
53619;BME280;39505;53.040;18.488;2022-11-20T00:22:50;100913.53;;;-0.01;100.00
53619;BME280;39505;53.040;18.488;2022-11-20T00:23:02;100912.72;;;-0.03;100.00
53619;BME280;39505;53.040;18.488;2022-11-20T00:23:15;100918.78;;;-0.01;100.00
53619;BME280;39505;53.040;18.488;2022-11-20T00:23:29;100917.09;;;-0.02;100.00
53619;BME280;39505;53.040;18.488;2022-11-20T00:23:42;100911.81;;;-0.02;100.00
53619;BME280;39505;53.040;18.488;2022-11-20T00:23:56;100917.94;;;-0.01;100.00
53619;BME280;39505;53.040;18.488;2022-11-20T00:24:09;100910.94;;;-0.02;100.00
53619;BME280;39505;53.040;18.488;2022-11-20T00:24:22;100914.44;;;-0.02;100.00
53619;BME280;39505;53.040;18.488;2022-11-20T00:24:36;100916.19;;;-0.02;100.00
53619;BME280;39505;53.040;18.488;2022-11-20T00:24:54;100912.72;;;-0.03;100.00
53619;BME280;39505;53.040;18.488;2022-11-20T00:25:07;100915.34;;;-0.03;100.00
53619;BME280;39505;53.040;18.488;2022-11-20T00:25:20;100916.19;;;-0.02;100.00
53619;BME280;39505;53.040;18.488;2022-11-20T00:25:33;100918.84;;;-0.02;100.00
53619;BME280;39505;53.040;18.488;2022-11-20T00:25:46;100917.09;;;-0.02;100.00
53619;BME280;39505;53.040;18.488;2022-11-20T00:26:02;100915.34;;;-0.03;100.00
53619;BME280;39505;53.040;18.488;2022-11-20T00:26:18;100918.84;;;-0.02;100.00
53619;BME280;39505;53.040;18.488;2022-11-20T00:26:30;100917.09;;;-0.02;100.00
53619;BME280;39505;53.040;18.488;2022-11-20T00:26:43;100917.09;;;-0.02;100.00
53619;BME280;39505;53.040;18.488;2022-11-20T00:26:56;100917.09;;;-0.02;100.00
53619;BME280;39505;53.040;18.488;2022-11-20T00:27:09;100925.00;;;-0.02;100.00
53619;BME280;39505;53.040;18.488;2022-11-20T00:27:21;100918.94;;;-0.04;100.00
53619;BME280;39505;53.040;18.488;2022-11-20T00:27:35;100924.13;;;-0.02;100.00
53619;BME280;39505;53.040;18.488;2022-11-20T00:27:48;100920.63;;;-0.03;100.00
53619;BME280;39505;53.040;18.488;2022-11-20T00:28:00;100910.09;;;-0.03;100.00
53619;BME280;39505;53.040;18.488;2022-11-20T00:28:13;100920.63;;;-0.03;100.00
53619;BME280;39505;53.040;18.488;2022-11-20T00:28:25;100920.63;;;-0.03;100.00
53619;BME280;39505;53.040;18.488;2022-11-20T00:28:38;100924.13;;;-0.02;100.00
53619;BME280;39505;53.040;18.488;2022-11-20T00:28:53;100923.22;;;-0.01;100.00
53619;BME280;39505;53.040;18.488;2022-11-20T00:29:08;100918.78;;;-0.01;100.00
53619;BME280;39505;53.040;18.488;2022-11-20T00:29:21;100922.28;;;-0.00;100.00
53619;BME280;39505;53.040;18.488;2022-11-20T00:29:34;100917.94;;;-0.01;100.00
53619;BME280;39505;53.040;18.488;2022-11-20T00:29:47;100918.84;;;-0.02;100.00
53619;BME280;39505;53.040;18.488;2022-11-20T00:29:59;100928.47;;;-0.01;100.00
53619;BME280;39505;53.040;18.488;2022-11-20T00:30:13;100919.72;;;-0.02;100.00
53619;BME280;39505;53.040;18.488;2022-11-20T00:30:26;100918.03;;;-0.05;100.00
53619;BME280;39505;53.040;18.488;2022-11-20T00:30:39;100925.91;;;-0.03;100.00
53619;BME280;39505;53.040;18.488;2022-11-20T00:31:00;100919.78;;;-0.04;100.00
53619;BME280;39505;53.040;18.488;2022-11-20T00:31:14;100928.53;;;-0.03;100.00
53619;BME280;39505;53.040;18.488;2022-11-20T00:31:28;100924.19;;;-0.04;100.00
53619;BME280;39505;53.040;18.488;2022-11-20T00:31:41;100918.94;;;-0.04;100.00
53619;BME280;39505;53.040;18.488;2022-11-20T00:31:55;100919.78;;;-0.04;100.00
53619;BME280;39505;53.040;18.488;2022-11-20T00:32:07;100924.19;;;-0.04;100.00
53619;BME280;39505;53.040;18.488;2022-11-20T00:32:20;100923.31;;;-0.05;100.00
53619;BME280;39505;53.040;18.488;2022-11-20T00:32:33;100921.56;;;-0.04;100.00
53619;BME280;39505;53.040;18.488;2022-11-20T00:32:45;100925.09;;;-0.05;100.00
53619;BME280;39505;53.040;18.488;2022-11-20T00:32:58;100925.91;;;-0.03;100.00
53619;BME280;39505;53.040;18.488;2022-11-20T00:33:11;100931.16;;;-0.03;100.00
53619;BME280;39505;53.040;18.488;2022-11-20T00:33:24;100922.34;;;-0.02;100.00
53619;BME280;39505;53.040;18.488;2022-11-20T00:33:37;100925.91;;;-0.03;100.00
53619;BME280;39505;53.040;18.488;2022-11-20T00:33:50;100918.94;;;-0.04;100.00
53619;BME280;39505;53.040;18.488;2022-11-20T00:34:03;100912.72;;;-0.03;100.00
53619;BME280;39505;53.040;18.488;2022-11-20T00:34:16;100918.84;;;-0.02;100.00
53619;BME280;39505;53.040;18.488;2022-11-20T00:34:28;100930.25;;;-0.02;100.00
53619;BME280;39505;53.040;18.488;2022-11-20T00:34:42;100919.72;;;-0.02;100.00
53619;BME280;39505;53.040;18.488;2022-11-20T00:34:54;100926.69;;;-0.01;100.00
53619;BME280;39505;53.040;18.488;2022-11-20T00:35:07;100923.25;;;-0.03;100.00
53619;BME280;39505;53.040;18.488;2022-11-20T00:35:20;100926.75;;;-0.02;100.00
53619;BME280;39505;53.040;18.488;2022-11-20T00:35:32;100918.84;;;-0.02;100.00
53619;BME280;39505;53.040;18.488;2022-11-20T00:35:45;100922.34;;;-0.02;100.00
53619;BME280;39505;53.040;18.488;2022-11-20T00:36:01;100921.41;;;-0.01;100.00
53619;BME280;39505;53.040;18.488;2022-11-20T00:36:16;100927.63;;;-0.02;100.00
53619;BME280;39505;53.040;18.488;2022-11-20T00:36:32;100923.25;;;-0.03;100.00
53619;BME280;39505;53.040;18.488;2022-11-20T00:36:46;100920.56;;;-0.01;100.00
53619;BME280;39505;53.040;18.488;2022-11-20T00:36:58;100925.84;;;-0.01;100.00
53619;BME280;39505;53.040;18.488;2022-11-20T00:37:11;100917.94;;;-0.01;100.00
53619;BME280;39505;53.040;18.488;2022-11-20T00:37:24;100928.47;;;-0.01;100.00
53619;BME280;39505;53.040;18.488;2022-11-20T00:37:37;100919.72;;;-0.02;100.00
53619;BME280;39505;53.040;18.488;2022-11-20T00:37:49;100924.91;;;-0.00;100.00
53619;BME280;39505;53.040;18.488;2022-11-20T00:38:03;100921.41;;;-0.01;100.00
53619;BME280;39505;53.040;18.488;2022-11-20T00:38:16;100926.75;;;-0.02;100.00
53619;BME280;39505;53.040;18.488;2022-11-20T00:38:28;100916.16;;;-0.01;100.00
53619;BME280;39505;53.040;18.488;2022-11-20T00:38:41;100924.06;;;-0.01;100.00
53619;BME280;39505;53.040;18.488;2022-11-20T00:38:55;100920.53;;;0.00;100.00
53619;BME280;39505;53.040;18.488;2022-11-20T00:39:08;100925.78;;;0.00;100.00
53619;BME280;39505;53.040;18.488;2022-11-20T00:39:21;100923.16;;;0.00;100.00
53619;BME280;39505;53.040;18.488;2022-11-20T00:39:35;100926.66;;;0.01;100.00
53619;BME280;39505;53.040;18.488;2022-11-20T00:39:47;100922.28;;;-0.00;100.00
53619;BME280;39505;53.040;18.488;2022-11-20T00:40:00;100919.63;;;-0.00;100.00
53619;BME280;39505;53.040;18.488;2022-11-20T00:40:13;100924.91;;;-0.00;100.00
53619;BME280;39505;53.040;18.488;2022-11-20T00:40:25;100922.22;;;0.01;100.00
53619;BME280;39505;53.040;18.488;2022-11-20T00:40:38;100924.84;;;0.01;100.00
53619;BME280;39505;53.040;18.488;2022-11-20T00:40:55;100918.69;;;0.02;100.00
53619;BME280;39505;53.040;18.488;2022-11-20T00:41:10;100916.94;;;0.01;100.00
53619;BME280;39505;53.040;18.488;2022-11-20T00:41:24;100917.81;;;0.02;100.00
53619;BME280;39505;53.040;18.488;2022-11-20T00:41:37;100917.81;;;0.02;100.00
53619;BME280;39505;53.040;18.488;2022-11-20T00:41:50;100917.81;;;0.02;100.00
53619;BME280;39505;53.040;18.488;2022-11-20T00:42:03;100919.53;;;0.03;100.00
53619;BME280;39505;53.040;18.488;2022-11-20T00:42:16;100921.31;;;0.02;100.00
53619;BME280;39505;53.040;18.488;2022-11-20T00:42:29;100918.69;;;0.02;100.00
53619;BME280;39505;53.040;18.488;2022-11-20T00:42:43;100924.00;;;0.01;100.00
53619;BME280;39505;53.040;18.488;2022-11-20T00:42:55;100920.53;;;0.00;100.00
53619;BME280;39505;53.040;18.488;2022-11-20T00:43:08;100915.25;;;0.00;100.00
53619;BME280;39505;53.040;18.488;2022-11-20T00:43:21;100908.25;;;-0.01;100.00
53619;BME280;39505;53.040;18.488;2022-11-20T00:43:34;100914.38;;;-0.00;100.00
53619;BME280;39505;53.040;18.488;2022-11-20T00:43:47;100916.16;;;-0.01;100.00
53619;BME280;39505;53.040;18.488;2022-11-20T00:44:00;100917.94;;;-0.01;100.00
53619;BME280;39505;53.040;18.488;2022-11-20T00:44:12;100920.53;;;0.00;100.00
53619;BME280;39505;53.040;18.488;2022-11-20T00:44:25;100920.53;;;0.00;100.00
53619;BME280;39505;53.040;18.488;2022-11-20T00:44:38;100920.53;;;0.00;100.00
53619;BME280;39505;53.040;18.488;2022-11-20T00:44:50;100913.53;;;-0.01;100.00
53619;BME280;39505;53.040;18.488;2022-11-20T00:45:04;100918.78;;;-0.01;100.00
53619;BME280;39505;53.040;18.488;2022-11-20T00:45:18;100917.00;;;-0.00;100.00
53619;BME280;39505;53.040;18.488;2022-11-20T00:45:30;100914.44;;;-0.02;100.00
53619;BME280;39505;53.040;18.488;2022-11-20T00:45:43;100917.09;;;-0.02;100.00
53619;BME280;39505;53.040;18.488;2022-11-20T00:45:58;100914.44;;;-0.02;100.00
53619;BME280;39505;53.040;18.488;2022-11-20T00:46:13;100910.94;;;-0.02;100.00
53619;BME280;39505;53.040;18.488;2022-11-20T00:46:27;100915.34;;;-0.03;100.00
53619;BME280;39505;53.040;18.488;2022-11-20T00:46:41;100912.72;;;-0.03;100.00
53619;BME280;39505;53.040;18.488;2022-11-20T00:46:53;100914.50;;;-0.04;100.00
53619;BME280;39505;53.040;18.488;2022-11-20T00:47:06;100918.94;;;-0.04;100.00
53619;BME280;39505;53.040;18.488;2022-11-20T00:47:19;100913.66;;;-0.04;100.00
53619;BME280;39505;53.040;18.488;2022-11-20T00:47:31;100920.69;;;-0.05;100.00
53619;BME280;39505;53.040;18.488;2022-11-20T00:47:44;100917.19;;;-0.05;100.00
53619;BME280;39505;53.040;18.488;2022-11-20T00:47:56;100912.84;;;-0.06;100.00
53619;BME280;39505;53.040;18.488;2022-11-20T00:48:09;100914.63;;;-0.07;100.00
53619;BME280;39505;53.040;18.488;2022-11-20T00:48:22;100912.00;;;-0.07;100.00
53619;BME280;39505;53.040;18.488;2022-11-20T00:48:35;100910.31;;;-0.09;100.00
53619;BME280;39505;53.040;18.488;2022-11-20T00:48:48;100910.31;;;-0.09;100.00
53619;BME280;39505;53.040;18.488;2022-11-20T00:49:01;100914.69;;;-0.08;100.00
53619;BME280;39505;53.040;18.488;2022-11-20T00:49:14;100911.19;;;-0.09;100.00
53619;BME280;39505;53.040;18.488;2022-11-20T00:49:26;100912.09;;;-0.10;100.00
53619;BME280;39505;53.040;18.488;2022-11-20T00:49:40;100915.59;;;-0.09;100.00
53619;BME280;39505;53.040;18.488;2022-11-20T00:49:52;100911.19;;;-0.09;100.00
53619;BME280;39505;53.040;18.488;2022-11-20T00:50:06;100915.59;;;-0.09;100.00
53619;BME280;39505;53.040;18.488;2022-11-20T00:50:18;100913.84;;;-0.09;100.00
53619;BME280;39505;53.040;18.488;2022-11-20T00:50:31;100916.47;;;-0.09;100.00
53619;BME280;39505;53.040;18.488;2022-11-20T00:50:43;100917.31;;;-0.08;100.00
53619;BME280;39505;53.040;18.488;2022-11-20T00:50:56;100912.97;;;-0.09;100.00
53619;BME280;39505;53.040;18.488;2022-11-20T00:51:11;100911.19;;;-0.09;100.00
53619;BME280;39505;53.040;18.488;2022-11-20T00:51:27;100911.19;;;-0.09;100.00
53619;BME280;39505;53.040;18.488;2022-11-20T00:51:39;100915.59;;;-0.09;100.00
53619;BME280;39505;53.040;18.488;2022-11-20T00:51:52;100909.47;;;-0.10;100.00
53619;BME280;39505;53.040;18.488;2022-11-20T00:52:05;100913.88;;;-0.10;100.00
53619;BME280;39505;53.040;18.488;2022-11-20T00:52:17;100915.69;;;-0.11;100.00
53619;BME280;39505;53.040;18.488;2022-11-20T00:52:30;100914.75;;;-0.10;100.00
53619;BME280;39505;53.040;18.488;2022-11-20T00:52:43;100919.16;;;-0.10;100.00
53619;BME280;39505;53.040;18.488;2022-11-20T00:52:55;100917.38;;;-0.10;100.00
53619;BME280;39505;53.040;18.488;2022-11-20T00:53:09;100916.53;;;-0.10;100.00
53619;BME280;39505;53.040;18.488;2022-11-20T00:53:22;100913.88;;;-0.10;100.00
53619;BME280;39505;53.040;18.488;2022-11-20T00:53:35;100916.47;;;-0.09;100.00
53619;BME280;39505;53.040;18.488;2022-11-20T00:53:47;100920.00;;;-0.10;100.00
53619;BME280;39505;53.040;18.488;2022-11-20T00:54:00;100919.97;;;-0.08;100.00
53619;BME280;39505;53.040;18.488;2022-11-20T00:54:14;100914.69;;;-0.08;100.00
53619;BME280;39505;53.040;18.488;2022-11-20T00:54:26;100917.31;;;-0.08;100.00
53619;BME280;39505;53.040;18.488;2022-11-20T00:54:39;100918.22;;;-0.09;100.00
53619;BME280;39505;53.040;18.488;2022-11-20T00:54:53;100916.38;;;-0.07;100.00
53619;BME280;39505;53.040;18.488;2022-11-20T00:55:06;100908.63;;;-0.10;100.00
53619;BME280;39505;53.040;18.488;2022-11-20T00:55:19;100917.31;;;-0.08;100.00
53619;BME280;39505;53.040;18.488;2022-11-20T00:55:31;100915.50;;;-0.06;100.00
53619;BME280;39505;53.040;18.488;2022-11-20T00:55:52;100916.34;;;-0.06;100.00
53619;BME280;39505;53.040;18.488;2022-11-20T00:56:09;100924.25;;;-0.06;100.00
53619;BME280;39505;53.040;18.488;2022-11-20T00:56:22;100919.91;;;-0.07;100.00
53619;BME280;39505;53.040;18.488;2022-11-20T00:56:35;100917.31;;;-0.08;100.00
53619;BME280;39505;53.040;18.488;2022-11-20T00:56:48;100915.59;;;-0.09;100.00
53619;BME280;39505;53.040;18.488;2022-11-20T00:57:00;100916.47;;;-0.09;100.00
53619;BME280;39505;53.040;18.488;2022-11-20T00:57:13;100912.06;;;-0.08;100.00
53619;BME280;39505;53.040;18.488;2022-11-20T00:57:27;100922.59;;;-0.08;100.00
53619;BME280;39505;53.040;18.488;2022-11-20T00:57:39;100912.06;;;-0.08;100.00
53619;BME280;39505;53.040;18.488;2022-11-20T00:57:52;100922.59;;;-0.08;100.00
53619;BME280;39505;53.040;18.488;2022-11-20T00:58:04;100919.97;;;-0.08;100.00
53619;BME280;39505;53.040;18.488;2022-11-20T00:58:25;100915.59;;;-0.09;100.00
53619;BME280;39505;53.040;18.488;2022-11-20T00:58:42;100916.38;;;-0.07;100.00
53619;BME280;39505;53.040;18.488;2022-11-20T00:58:59;100914.69;;;-0.08;100.00
53619;BME280;39505;53.040;18.488;2022-11-20T00:59:12;100913.75;;;-0.07;100.00
53619;BME280;39505;53.040;18.488;2022-11-20T00:59:24;100912.06;;;-0.08;100.00
53619;BME280;39505;53.040;18.488;2022-11-20T00:59:37;100919.91;;;-0.07;100.00
53619;BME280;39505;53.040;18.488;2022-11-20T00:59:50;100914.69;;;-0.08;100.00
53619;BME280;39505;53.040;18.488;2022-11-20T01:00:03;100916.47;;;-0.09;100.00
53619;BME280;39505;53.040;18.488;2022-11-20T01:00:17;100916.53;;;-0.10;100.00
53619;BME280;39505;53.040;18.488;2022-11-20T01:00:30;100910.41;;;-0.11;100.00
53619;BME280;39505;53.040;18.488;2022-11-20T01:00:43;100913.03;;;-0.11;100.00
53619;BME280;39505;53.040;18.488;2022-11-20T01:01:00;100915.69;;;-0.11;100.00
53619;BME280;39505;53.040;18.488;2022-11-20T01:01:15;100912.09;;;-0.10;100.00
53619;BME280;39505;53.040;18.488;2022-11-20T01:01:29;100915.59;;;-0.09;100.00
53619;BME280;39505;53.040;18.488;2022-11-20T01:01:43;100916.53;;;-0.10;100.00
53619;BME280;39505;53.040;18.488;2022-11-20T01:01:55;100918.22;;;-0.09;100.00
53619;BME280;39505;53.040;18.488;2022-11-20T01:02:08;100920.88;;;-0.09;100.00
53619;BME280;39505;53.040;18.488;2022-11-20T01:02:21;100913.88;;;-0.10;100.00
53619;BME280;39505;53.040;18.488;2022-11-20T01:02:33;100913.88;;;-0.10;100.00
53619;BME280;39505;53.040;18.488;2022-11-20T01:02:46;100917.44;;;-0.11;100.00
53619;BME280;39505;53.040;18.488;2022-11-20T01:02:59;100918.31;;;-0.11;100.00
53619;BME280;39505;53.040;18.488;2022-11-20T01:03:11;100907.78;;;-0.11;100.00
53619;BME280;39505;53.040;18.488;2022-11-20T01:03:24;100917.44;;;-0.11;100.00
53619;BME280;39505;53.040;18.488;2022-11-20T01:03:40;100916.53;;;-0.10;100.00
53619;BME280;39505;53.040;18.488;2022-11-20T01:03:56;100916.53;;;-0.10;100.00
53619;BME280;39505;53.040;18.488;2022-11-20T01:04:09;100913.88;;;-0.10;100.00
53619;BME280;39505;53.040;18.488;2022-11-20T01:04:21;100915.59;;;-0.09;100.00
53619;BME280;39505;53.040;18.488;2022-11-20T01:04:34;100912.16;;;-0.11;100.00
53619;BME280;39505;53.040;18.488;2022-11-20T01:04:47;100919.16;;;-0.10;100.00
53619;BME280;39505;53.040;18.488;2022-11-20T01:04:59;100919.09;;;-0.09;100.00
53619;BME280;39505;53.040;18.488;2022-11-20T01:05:13;100913.03;;;-0.11;100.00
53619;BME280;39505;53.040;18.488;2022-11-20T01:05:26;100916.53;;;-0.10;100.00
53619;BME280;39505;53.040;18.488;2022-11-20T01:05:39;100921.84;;;-0.12;100.00
53619;BME280;39505;53.040;18.488;2022-11-20T01:05:51;100916.56;;;-0.12;100.00
53619;BME280;39505;53.040;18.488;2022-11-20T01:06:06;100915.72;;;-0.12;100.00
53619;BME280;39505;53.040;18.488;2022-11-20T01:06:21;100913.16;;;-0.14;100.00
53619;BME280;39505;53.040;18.488;2022-11-20T01:06:35;100918.50;;;-0.15;100.00
53619;BME280;39505;53.040;18.488;2022-11-20T01:06:49;100919.25;;;-0.13;100.00
53619;BME280;39505;53.040;18.488;2022-11-20T01:07:02;100916.63;;;-0.13;100.00
53619;BME280;39505;53.040;18.488;2022-11-20T01:07:15;100914.00;;;-0.13;100.00
53619;BME280;39505;53.040;18.488;2022-11-20T01:07:27;100916.75;;;-0.16;100.00
53619;BME280;39505;53.040;18.488;2022-11-20T01:07:40;100913.22;;;-0.15;100.00
53619;BME280;39505;53.040;18.488;2022-11-20T01:07:53;100916.72;;;-0.15;100.00
53619;BME280;39505;53.040;18.488;2022-11-20T01:08:05;100916.72;;;-0.15;100.00
53619;BME280;39505;53.040;18.488;2022-11-20T01:08:18;100915.84;;;-0.15;100.00
53619;BME280;39505;53.040;18.488;2022-11-20T01:08:32;100915.06;;;-0.17;100.00